Terminal Aerodrome Forecast
Issued by NWS

Home | Current Version | Previous Version | Text Only | Print | Product List | Glossary On
Versions: 1 2 3 4 5 6 7 8 9 10 11 12 13 14 15 16 17 18
745
FTUS45 KTFX 230818 AAA
TAFCTB
TAF AMD
KCTB 230818Z 2308/2406 05014KT 5SM -SN BR OVC006
     FM231500 03007KT 6SM BR VCSH SCT015 OVC025
     FM240000 12006KT P6SM SCT025 BKN050=

USA.gov is the U.S. government's official web portal to all federal, state and local government web resources and services.